Steelville, Missouri
Current Conditions -  °F | °C
As of 2:53 PM on Tuesday 25 Nov 2014 (Local Time) from KVIH Reporting Station
Clear Clear  
Wind Chill: 34°   Ceiling: Unl
Heat Index: 40°   Visibility: 10mi
Dew Point: 18°   Wind: 8mph
Humidity: 41%   Direction: 260°W
Pressure: 30.11"   Gusts: NA
Location:  37.97°N, 91.35°W
Report Text: KVIH 252053Z AUTO 26007KT 10SM CLR 04/M08 A3011 RMK AO2 SLP205 T00441078 56021
Loading
Personal Weather Stations






























Interactive Weather Map New forecast layout! Learn more

10-Day Weather Forecast

Advertisements
Track Severe Weather on mobile